sensor_id;sensor_type;location;lat;lon;timestamp;P1;durP1;ratioP1;P2;durP2;ratioP2
19705;SDS011;10003;52.506;4.700;2023-05-14T00:00:29;2.23;;;2.13;;
19705;SDS011;10003;52.506;4.700;2023-05-14T00:02:58;6.70;;;6.07;;
19705;SDS011;10003;52.506;4.700;2023-05-14T00:05:26;8.10;;;4.97;;
19705;SDS011;10003;52.506;4.700;2023-05-14T00:07:56;5.60;;;4.53;;
19705;SDS011;10003;52.506;4.700;2023-05-14T00:10:25;4.27;;;3.10;;
19705;SDS011;10003;52.506;4.700;2023-05-14T00:12:53;3.50;;;3.20;;
19705;SDS011;10003;52.506;4.700;2023-05-14T00:15:22;4.07;;;3.67;;
19705;SDS011;10003;52.506;4.700;2023-05-14T00:17:50;5.97;;;4.57;;
19705;SDS011;10003;52.506;4.700;2023-05-14T00:20:18;23.10;;;7.10;;
19705;SDS011;10003;52.506;4.700;2023-05-14T00:22:47;7.27;;;6.53;;
19705;SDS011;10003;52.506;4.700;2023-05-14T00:25:17;8.13;;;4.30;;
19705;SDS011;10003;52.506;4.700;2023-05-14T00:27:45;7.97;;;5.33;;
19705;SDS011;10003;52.506;4.700;2023-05-14T00:30:14;5.70;;;4.87;;
19705;SDS011;10003;52.506;4.700;2023-05-14T00:32:42;5.83;;;3.50;;
19705;SDS011;10003;52.506;4.700;2023-05-14T00:35:11;3.13;;;2.90;;
19705;SDS011;10003;52.506;4.700;2023-05-14T00:37:39;0.73;;;0.73;;
19705;SDS011;10003;52.506;4.700;2023-05-14T00:40:08;4.83;;;3.03;;
19705;SDS011;10003;52.506;4.700;2023-05-14T00:42:39;4.03;;;2.90;;
19705;SDS011;10003;52.506;4.700;2023-05-14T00:45:08;3.73;;;3.47;;
19705;SDS011;10003;52.506;4.700;2023-05-14T00:47:36;2.30;;;2.13;;
19705;SDS011;10003;52.506;4.700;2023-05-14T00:50:06;5.33;;;4.83;;
19705;SDS011;10003;52.506;4.700;2023-05-14T00:52:34;2.13;;;2.00;;
19705;SDS011;10003;52.506;4.700;2023-05-14T00:55:03;4.83;;;4.43;;
19705;SDS011;10003;52.506;4.700;2023-05-14T00:57:33;7.83;;;4.27;;
19705;SDS011;10003;52.506;4.700;2023-05-14T01:00:03;3.87;;;2.40;;
19705;SDS011;10003;52.506;4.700;2023-05-14T01:02:31;1.67;;;1.27;;
19705;SDS011;10003;52.506;4.700;2023-05-14T01:05:00;3.73;;;3.43;;
19705;SDS011;10003;52.506;4.700;2023-05-14T01:07:34;2.60;;;2.43;;
19705;SDS011;10003;52.506;4.700;2023-05-14T01:10:06;3.20;;;3.00;;
19705;SDS011;10003;52.506;4.700;2023-05-14T01:12:36;8.00;;;3.47;;
19705;SDS011;10003;52.506;4.700;2023-05-14T01:15:08;5.33;;;4.10;;
19705;SDS011;10003;52.506;4.700;2023-05-14T01:17:39;6.27;;;4.37;;
19705;SDS011;10003;52.506;4.700;2023-05-14T01:20:08;14.10;;;3.60;;
19705;SDS011;10003;52.506;4.700;2023-05-14T01:22:39;2.30;;;2.13;;
19705;SDS011;10003;52.506;4.700;2023-05-14T01:25:08;4.90;;;3.57;;
19705;SDS011;10003;52.506;4.700;2023-05-14T01:27:37;8.03;;;6.47;;
19705;SDS011;10003;52.506;4.700;2023-05-14T01:30:09;4.90;;;3.93;;
19705;SDS011;10003;52.506;4.700;2023-05-14T01:32:41;3.23;;;2.93;;
19705;SDS011;10003;52.506;4.700;2023-05-14T01:35:12;3.57;;;3.17;;
19705;SDS011;10003;52.506;4.700;2023-05-14T01:37:42;5.33;;;3.47;;
19705;SDS011;10003;52.506;4.700;2023-05-14T01:40:11;3.60;;;3.30;;
19705;SDS011;10003;52.506;4.700;2023-05-14T01:42:40;5.33;;;3.07;;
19705;SDS011;10003;52.506;4.700;2023-05-14T01:45:10;4.83;;;4.00;;
19705;SDS011;10003;52.506;4.700;2023-05-14T01:47:38;3.37;;;3.17;;
19705;SDS011;10003;52.506;4.700;2023-05-14T01:50:07;4.33;;;2.90;;
19705;SDS011;10003;52.506;4.700;2023-05-14T01:52:35;6.67;;;6.07;;
19705;SDS011;10003;52.506;4.700;2023-05-14T01:55:05;4.27;;;3.87;;
19705;SDS011;10003;52.506;4.700;2023-05-14T01:57:34;4.33;;;4.03;;
19705;SDS011;10003;52.506;4.700;2023-05-14T02:00:03;0.70;;;0.70;;
19705;SDS011;10003;52.506;4.700;2023-05-14T02:02:31;4.90;;;4.20;;
19705;SDS011;10003;52.506;4.700;2023-05-14T02:04:59;9.13;;;5.07;;
19705;SDS011;10003;52.506;4.700;2023-05-14T02:07:31;9.03;;;5.57;;
19705;SDS011;10003;52.506;4.700;2023-05-14T02:09:59;6.50;;;5.67;;
19705;SDS011;10003;52.506;4.700;2023-05-14T02:12:29;2.93;;;2.83;;
19705;SDS011;10003;52.506;4.700;2023-05-14T02:14:58;5.43;;;3.53;;
19705;SDS011;10003;52.506;4.700;2023-05-14T02:17:26;9.93;;;6.60;;
19705;SDS011;10003;52.506;4.700;2023-05-14T02:19:54;10.23;;;6.33;;
19705;SDS011;10003;52.506;4.700;2023-05-14T02:22:23;9.40;;;7.00;;
19705;SDS011;10003;52.506;4.700;2023-05-14T02:24:52;6.73;;;4.37;;
19705;SDS011;10003;52.506;4.700;2023-05-14T02:27:20;6.37;;;5.10;;
19705;SDS011;10003;52.506;4.700;2023-05-14T02:29:50;18.97;;;8.90;;
19705;SDS011;10003;52.506;4.700;2023-05-14T02:32:18;6.47;;;5.27;;
19705;SDS011;10003;52.506;4.700;2023-05-14T02:34:47;9.27;;;8.17;;
19705;SDS011;10003;52.506;4.700;2023-05-14T02:37:15;12.33;;;8.23;;
19705;SDS011;10003;52.506;4.700;2023-05-14T02:39:44;17.70;;;9.70;;
19705;SDS011;10003;52.506;4.700;2023-05-14T02:42:12;8.00;;;7.20;;
19705;SDS011;10003;52.506;4.700;2023-05-14T02:44:40;8.67;;;6.50;;
19705;SDS011;10003;52.506;4.700;2023-05-14T02:47:10;9.40;;;4.10;;
19705;SDS011;10003;52.506;4.700;2023-05-14T02:49:38;8.03;;;7.23;;
19705;SDS011;10003;52.506;4.700;2023-05-14T02:52:07;5.50;;;4.97;;
19705;SDS011;10003;52.506;4.700;2023-05-14T02:54:35;4.10;;;3.23;;
19705;SDS011;10003;52.506;4.700;2023-05-14T02:57:04;10.10;;;6.60;;
19705;SDS011;10003;52.506;4.700;2023-05-14T02:59:32;9.80;;;7.13;;
19705;SDS011;10003;52.506;4.700;2023-05-14T03:02:04;11.20;;;7.50;;
19705;SDS011;10003;52.506;4.700;2023-05-14T03:04:34;7.43;;;5.20;;
19705;SDS011;10003;52.506;4.700;2023-05-14T03:07:03;7.70;;;7.00;;
19705;SDS011;10003;52.506;4.700;2023-05-14T03:09:31;6.77;;;4.30;;
19705;SDS011;10003;52.506;4.700;2023-05-14T03:12:03;7.47;;;6.67;;
19705;SDS011;10003;52.506;4.700;2023-05-14T03:14:32;6.83;;;5.63;;
19705;SDS011;10003;52.506;4.700;2023-05-14T03:17:00;6.10;;;4.43;;
19705;SDS011;10003;52.506;4.700;2023-05-14T03:19:29;8.87;;;8.07;;
19705;SDS011;10003;52.506;4.700;2023-05-14T03:21:59;12.90;;;8.37;;
19705;SDS011;10003;52.506;4.700;2023-05-14T03:24:27;11.50;;;7.63;;
19705;SDS011;10003;52.506;4.700;2023-05-14T03:26:56;5.73;;;5.33;;
19705;SDS011;10003;52.506;4.700;2023-05-14T03:29:25;9.07;;;5.83;;
19705;SDS011;10003;52.506;4.700;2023-05-14T03:31:53;10.47;;;7.97;;
19705;SDS011;10003;52.506;4.700;2023-05-14T03:34:22;11.33;;;8.23;;
19705;SDS011;10003;52.506;4.700;2023-05-14T03:36:50;4.23;;;3.20;;
19705;SDS011;10003;52.506;4.700;2023-05-14T03:39:20;8.40;;;2.57;;
19705;SDS011;10003;52.506;4.700;2023-05-14T03:41:48;2.27;;;2.20;;
19705;SDS011;10003;52.506;4.700;2023-05-14T03:44:17;6.53;;;3.30;;
19705;SDS011;10003;52.506;4.700;2023-05-14T03:46:45;13.33;;;8.80;;
19705;SDS011;10003;52.506;4.700;2023-05-14T03:49:14;14.17;;;10.03;;
19705;SDS011;10003;52.506;4.700;2023-05-14T03:51:42;3.10;;;2.90;;
19705;SDS011;10003;52.506;4.700;2023-05-14T03:54:10;5.67;;;2.93;;
19705;SDS011;10003;52.506;4.700;2023-05-14T03:56:40;15.07;;;9.73;;
19705;SDS011;10003;52.506;4.700;2023-05-14T03:59:08;3.23;;;2.97;;
19705;SDS011;10003;52.506;4.700;2023-05-14T04:01:37;10.27;;;7.70;;
19705;SDS011;10003;52.506;4.700;2023-05-14T04:04:05;8.20;;;5.90;;
19705;SDS011;10003;52.506;4.700;2023-05-14T04:06:34;10.83;;;7.23;;
19705;SDS011;10003;52.506;4.700;2023-05-14T04:09:02;2.97;;;2.70;;
19705;SDS011;10003;52.506;4.700;2023-05-14T04:11:31;11.10;;;7.23;;
19705;SDS011;10003;52.506;4.700;2023-05-14T04:14:01;6.60;;;5.97;;
19705;SDS011;10003;52.506;4.700;2023-05-14T04:16:29;11.47;;;7.70;;
19705;SDS011;10003;52.506;4.700;2023-05-14T04:18:59;9.30;;;6.87;;
19705;SDS011;10003;52.506;4.700;2023-05-14T04:21:29;8.93;;;6.33;;
19705;SDS011;10003;52.506;4.700;2023-05-14T04:23:57;9.03;;;6.53;;
19705;SDS011;10003;52.506;4.700;2023-05-14T04:26:26;16.23;;;10.93;;
19705;SDS011;10003;52.506;4.700;2023-05-14T04:28:54;6.53;;;5.80;;
19705;SDS011;10003;52.506;4.700;2023-05-14T04:31:24;14.47;;;12.40;;
19705;SDS011;10003;52.506;4.700;2023-05-14T04:33:53;6.70;;;6.13;;
19705;SDS011;10003;52.506;4.700;2023-05-14T04:36:21;9.53;;;7.93;;
19705;SDS011;10003;52.506;4.700;2023-05-14T04:38:50;15.70;;;11.83;;
19705;SDS011;10003;52.506;4.700;2023-05-14T04:41:20;12.17;;;9.20;;
19705;SDS011;10003;52.506;4.700;2023-05-14T04:43:49;11.90;;;8.23;;
19705;SDS011;10003;52.506;4.700;2023-05-14T04:46:17;9.33;;;6.20;;
19705;SDS011;10003;52.506;4.700;2023-05-14T04:48:58;9.87;;;6.33;;
19705;SDS011;10003;52.506;4.700;2023-05-14T04:51:27;12.03;;;8.83;;
19705;SDS011;10003;52.506;4.700;2023-05-14T04:53:55;12.40;;;9.63;;
19705;SDS011;10003;52.506;4.700;2023-05-14T04:56:24;8.57;;;6.30;;
19705;SDS011;10003;52.506;4.700;2023-05-14T04:58:52;9.73;;;8.40;;
19705;SDS011;10003;52.506;4.700;2023-05-14T05:01:20;11.53;;;7.77;;
19705;SDS011;10003;52.506;4.700;2023-05-14T05:03:51;13.60;;;8.60;;
19705;SDS011;10003;52.506;4.700;2023-05-14T05:06:20;8.10;;;7.13;;
19705;SDS011;10003;52.506;4.700;2023-05-14T05:08:48;8.63;;;6.17;;
19705;SDS011;10003;52.506;4.700;2023-05-14T05:11:17;10.83;;;7.60;;
19705;SDS011;10003;52.506;4.700;2023-05-14T05:13:47;7.20;;;4.90;;
19705;SDS011;10003;52.506;4.700;2023-05-14T05:16:15;10.43;;;6.57;;
19705;SDS011;10003;52.506;4.700;2023-05-14T05:18:43;6.27;;;5.67;;
19705;SDS011;10003;52.506;4.700;2023-05-14T05:21:13;14.07;;;6.00;;
19705;SDS011;10003;52.506;4.700;2023-05-14T05:23:42;8.60;;;7.90;;
19705;SDS011;10003;52.506;4.700;2023-05-14T05:26:10;8.97;;;7.63;;
19705;SDS011;10003;52.506;4.700;2023-05-14T05:28:39;11.97;;;8.53;;
19705;SDS011;10003;52.506;4.700;2023-05-14T05:31:07;10.57;;;8.30;;
19705;SDS011;10003;52.506;4.700;2023-05-14T05:33:36;11.80;;;9.43;;
19705;SDS011;10003;52.506;4.700;2023-05-14T05:36:04;9.77;;;6.77;;
19705;SDS011;10003;52.506;4.700;2023-05-14T05:38:34;8.13;;;6.60;;
19705;SDS011;10003;52.506;4.700;2023-05-14T05:41:03;8.90;;;7.67;;
19705;SDS011;10003;52.506;4.700;2023-05-14T05:43:31;4.70;;;4.27;;
19705;SDS011;10003;52.506;4.700;2023-05-14T05:46:00;7.07;;;5.17;;
19705;SDS011;10003;52.506;4.700;2023-05-14T05:48:28;11.83;;;8.03;;
19705;SDS011;10003;52.506;4.700;2023-05-14T05:50:57;10.30;;;6.40;;
19705;SDS011;10003;52.506;4.700;2023-05-14T05:53:25;12.20;;;9.10;;
19705;SDS011;10003;52.506;4.700;2023-05-14T05:55:56;8.30;;;5.77;;
19705;SDS011;10003;52.506;4.700;2023-05-14T05:58:25;11.93;;;6.87;;
19705;SDS011;10003;52.506;4.700;2023-05-14T06:00:53;5.00;;;4.60;;
19705;SDS011;10003;52.506;4.700;2023-05-14T06:03:22;3.97;;;3.67;;
19705;SDS011;10003;52.506;4.700;2023-05-14T06:05:52;9.33;;;6.50;;
19705;SDS011;10003;52.506;4.700;2023-05-14T06:08:20;4.40;;;3.13;;
19705;SDS011;10003;52.506;4.700;2023-05-14T06:10:49;7.70;;;5.33;;
19705;SDS011;10003;52.506;4.700;2023-05-14T06:13:19;8.57;;;4.70;;
19705;SDS011;10003;52.506;4.700;2023-05-14T06:15:47;4.93;;;4.37;;
19705;SDS011;10003;52.506;4.700;2023-05-14T06:18:16;12.33;;;7.47;;
19705;SDS011;10003;52.506;4.700;2023-05-14T06:20:44;6.70;;;5.90;;
19705;SDS011;10003;52.506;4.700;2023-05-14T06:23:13;4.57;;;4.13;;
19705;SDS011;10003;52.506;4.700;2023-05-14T06:25:41;11.43;;;8.27;;
19705;SDS011;10003;52.506;4.700;2023-05-14T06:28:10;12.37;;;7.30;;
19705;SDS011;10003;52.506;4.700;2023-05-14T06:30:40;11.63;;;6.37;;
19705;SDS011;10003;52.506;4.700;2023-05-14T06:33:09;8.57;;;7.70;;
19705;SDS011;10003;52.506;4.700;2023-05-14T06:35:41;12.07;;;5.70;;
19705;SDS011;10003;52.506;4.700;2023-05-14T06:38:12;10.13;;;6.40;;
19705;SDS011;10003;52.506;4.700;2023-05-14T06:40:40;7.13;;;5.20;;
19705;SDS011;10003;52.506;4.700;2023-05-14T06:43:09;7.27;;;5.63;;
19705;SDS011;10003;52.506;4.700;2023-05-14T06:45:37;16.23;;;8.33;;
19705;SDS011;10003;52.506;4.700;2023-05-14T06:48:07;8.70;;;7.83;;
19705;SDS011;10003;52.506;4.700;2023-05-14T06:50:36;11.13;;;7.63;;
19705;SDS011;10003;52.506;4.700;2023-05-14T06:53:04;11.60;;;7.63;;
19705;SDS011;10003;52.506;4.700;2023-05-14T06:55:33;8.30;;;6.97;;
19705;SDS011;10003;52.506;4.700;2023-05-14T06:58:01;13.47;;;6.33;;
19705;SDS011;10003;52.506;4.700;2023-05-14T07:00:29;15.83;;;10.07;;
19705;SDS011;10003;52.506;4.700;2023-05-14T07:02:58;10.33;;;5.60;;
19705;SDS011;10003;52.506;4.700;2023-05-14T07:05:28;14.17;;;7.00;;
19705;SDS011;10003;52.506;4.700;2023-05-14T07:07:56;3.87;;;3.57;;
19705;SDS011;10003;52.506;4.700;2023-05-14T07:10:25;7.17;;;3.67;;
19705;SDS011;10003;52.506;4.700;2023-05-14T07:12:53;4.17;;;3.77;;
19705;SDS011;10003;52.506;4.700;2023-05-14T07:15:22;9.03;;;5.13;;
19705;SDS011;10003;52.506;4.700;2023-05-14T07:17:52;11.97;;;6.53;;
19705;SDS011;10003;52.506;4.700;2023-05-14T07:20:21;6.53;;;5.10;;
19705;SDS011;10003;52.506;4.700;2023-05-14T07:22:52;5.40;;;4.43;;
19705;SDS011;10003;52.506;4.700;2023-05-14T07:25:21;6.70;;;4.20;;
19705;SDS011;10003;52.506;4.700;2023-05-14T07:27:51;2.60;;;2.40;;
19705;SDS011;10003;52.506;4.700;2023-05-14T07:30:19;9.20;;;3.47;;
19705;SDS011;10003;52.506;4.700;2023-05-14T07:32:48;12.10;;;5.30;;
19705;SDS011;10003;52.506;4.700;2023-05-14T07:35:17;11.20;;;6.40;;
19705;SDS011;10003;52.506;4.700;2023-05-14T07:37:45;5.60;;;3.93;;
19705;SDS011;10003;52.506;4.700;2023-05-14T07:40:15;3.43;;;2.87;;
19705;SDS011;10003;52.506;4.700;2023-05-14T07:42:43;2.57;;;2.37;;
19705;SDS011;10003;52.506;4.700;2023-05-14T07:45:12;5.90;;;5.23;;
19705;SDS011;10003;52.506;4.700;2023-05-14T07:47:40;2.53;;;2.23;;
19705;SDS011;10003;52.506;4.700;2023-05-14T07:50:09;12.13;;;5.97;;
19705;SDS011;10003;52.506;4.700;2023-05-14T07:52:38;1.73;;;1.63;;
19705;SDS011;10003;52.506;4.700;2023-05-14T07:55:07;9.10;;;3.30;;
19705;SDS011;10003;52.506;4.700;2023-05-14T07:57:37;8.40;;;3.77;;
19705;SDS011;10003;52.506;4.700;2023-05-14T08:00:05;6.87;;;4.13;;
19705;SDS011;10003;52.506;4.700;2023-05-14T08:02:34;4.50;;;3.20;;
19705;SDS011;10003;52.506;4.700;2023-05-14T08:05:03;7.37;;;4.33;;
19705;SDS011;10003;52.506;4.700;2023-05-14T08:07:31;11.80;;;3.47;;
19705;SDS011;10003;52.506;4.700;2023-05-14T08:10:00;5.63;;;4.87;;
19705;SDS011;10003;52.506;4.700;2023-05-14T08:12:28;3.13;;;2.37;;
19705;SDS011;10003;52.506;4.700;2023-05-14T08:14:58;6.50;;;3.50;;
19705;SDS011;10003;52.506;4.700;2023-05-14T08:17:26;3.07;;;2.67;;
19705;SDS011;10003;52.506;4.700;2023-05-14T08:19:55;3.00;;;2.80;;
19705;SDS011;10003;52.506;4.700;2023-05-14T08:22:23;1.57;;;1.50;;
19705;SDS011;10003;52.506;4.700;2023-05-14T08:24:52;4.77;;;4.13;;
19705;SDS011;10003;52.506;4.700;2023-05-14T08:27:20;7.30;;;5.03;;
19705;SDS011;10003;52.506;4.700;2023-05-14T08:29:49;4.73;;;4.37;;
19705;SDS011;10003;52.506;4.700;2023-05-14T08:32:18;2.60;;;2.27;;
19705;SDS011;10003;52.506;4.700;2023-05-14T08:34:49;4.73;;;2.00;;
19705;SDS011;10003;52.506;4.700;2023-05-14T08:37:18;1.63;;;1.53;;
19705;SDS011;10003;52.506;4.700;2023-05-14T08:39:46;3.73;;;2.70;;
19705;SDS011;10003;52.506;4.700;2023-05-14T08:42:14;4.83;;;3.67;;
19705;SDS011;10003;52.506;4.700;2023-05-14T08:44:47;3.23;;;2.93;;
19705;SDS011;10003;52.506;4.700;2023-05-14T08:47:17;2.03;;;1.93;;
19705;SDS011;10003;52.506;4.700;2023-05-14T08:49:48;3.63;;;2.37;;
19705;SDS011;10003;52.506;4.700;2023-05-14T08:52:19;2.53;;;2.27;;
19705;SDS011;10003;52.506;4.700;2023-05-14T08:54:49;4.13;;;3.43;;
19705;SDS011;10003;52.506;4.700;2023-05-14T08:57:19;4.43;;;3.60;;
19705;SDS011;10003;52.506;4.700;2023-05-14T08:59:50;3.73;;;3.07;;
19705;SDS011;10003;52.506;4.700;2023-05-14T09:02:19;2.37;;;2.17;;
19705;SDS011;10003;52.506;4.700;2023-05-14T09:04:49;3.53;;;3.23;;
19705;SDS011;10003;52.506;4.700;2023-05-14T09:07:20;2.93;;;2.63;;
19705;SDS011;10003;52.506;4.700;2023-05-14T09:09:49;2.57;;;1.37;;
19705;SDS011;10003;52.506;4.700;2023-05-14T09:12:18;3.07;;;2.73;;
19705;SDS011;10003;52.506;4.700;2023-05-14T09:14:48;7.23;;;4.07;;
19705;SDS011;10003;52.506;4.700;2023-05-14T09:17:17;6.50;;;2.50;;
19705;SDS011;10003;52.506;4.700;2023-05-14T09:19:46;4.73;;;3.83;;
19705;SDS011;10003;52.506;4.700;2023-05-14T09:22:19;2.53;;;2.33;;
19705;SDS011;10003;52.506;4.700;2023-05-14T09:25:00;1.60;;;1.50;;
19705;SDS011;10003;52.506;4.700;2023-05-14T09:27:29;2.63;;;2.43;;
19705;SDS011;10003;52.506;4.700;2023-05-14T09:30:08;2.77;;;2.27;;
19705;SDS011;10003;52.506;4.700;2023-05-14T09:32:37;3.30;;;1.97;;
19705;SDS011;10003;52.506;4.700;2023-05-14T09:35:10;4.20;;;2.23;;
19705;SDS011;10003;52.506;4.700;2023-05-14T09:37:41;4.60;;;3.20;;
19705;SDS011;10003;52.506;4.700;2023-05-14T09:40:10;8.30;;;2.13;;
19705;SDS011;10003;52.506;4.700;2023-05-14T09:42:41;7.77;;;3.07;;
19705;SDS011;10003;52.506;4.700;2023-05-14T09:45:10;2.17;;;2.07;;
19705;SDS011;10003;52.506;4.700;2023-05-14T09:47:39;3.87;;;2.77;;
19705;SDS011;10003;52.506;4.700;2023-05-14T09:50:08;3.50;;;3.20;;
19705;SDS011;10003;52.506;4.700;2023-05-14T09:52:36;2.70;;;2.50;;
19705;SDS011;10003;52.506;4.700;2023-05-14T09:55:07;4.83;;;3.20;;
19705;SDS011;10003;52.506;4.700;2023-05-14T09:57:36;3.27;;;2.30;;
19705;SDS011;10003;52.506;4.700;2023-05-14T10:00:05;13.63;;;2.37;;
19705;SDS011;10003;52.506;4.700;2023-05-14T10:02:35;5.63;;;2.60;;
19705;SDS011;10003;52.506;4.700;2023-05-14T10:05:06;2.17;;;1.50;;
19705;SDS011;10003;52.506;4.700;2023-05-14T10:07:37;2.67;;;2.47;;
19705;SDS011;10003;52.506;4.700;2023-05-14T10:10:09;4.93;;;2.90;;
19705;SDS011;10003;52.506;4.700;2023-05-14T10:12:39;1.00;;;0.90;;
19705;SDS011;10003;52.506;4.700;2023-05-14T10:15:12;7.83;;;2.47;;
19705;SDS011;10003;52.506;4.700;2023-05-14T10:17:45;1.70;;;1.60;;
19705;SDS011;10003;52.506;4.700;2023-05-14T10:20:15;3.40;;;2.27;;
19705;SDS011;10003;52.506;4.700;2023-05-14T10:22:44;8.53;;;2.13;;
19705;SDS011;10003;52.506;4.700;2023-05-14T10:25:14;1.27;;;1.17;;
19705;SDS011;10003;52.506;4.700;2023-05-14T10:27:43;1.30;;;1.30;;
19705;SDS011;10003;52.506;4.700;2023-05-14T10:30:12;1.73;;;1.63;;
19705;SDS011;10003;52.506;4.700;2023-05-14T10:32:40;2.20;;;1.97;;
19705;SDS011;10003;52.506;4.700;2023-05-14T10:35:16;2.10;;;1.77;;
19705;SDS011;10003;52.506;4.700;2023-05-14T10:37:46;2.17;;;1.97;;
19705;SDS011;10003;52.506;4.700;2023-05-14T10:40:22;1.77;;;1.20;;
19705;SDS011;10003;52.506;4.700;2023-05-14T10:42:52;1.63;;;1.53;;
19705;SDS011;10003;52.506;4.700;2023-05-14T10:45:20;1.53;;;1.43;;
19705;SDS011;10003;52.506;4.700;2023-05-14T10:47:50;4.73;;;2.70;;
19705;SDS011;10003;52.506;4.700;2023-05-14T10:50:19;2.50;;;1.97;;
19705;SDS011;10003;52.506;4.700;2023-05-14T10:52:49;0.50;;;0.50;;
19705;SDS011;10003;52.506;4.700;2023-05-14T10:55:18;2.67;;;2.47;;
19705;SDS011;10003;52.506;4.700;2023-05-14T10:57:49;4.67;;;2.47;;
19705;SDS011;10003;52.506;4.700;2023-05-14T11:00:19;3.43;;;2.33;;
19705;SDS011;10003;52.506;4.700;2023-05-14T11:02:54;5.30;;;1.53;;
19705;SDS011;10003;52.506;4.700;2023-05-14T11:05:23;4.23;;;2.80;;
19705;SDS011;10003;52.506;4.700;2023-05-14T11:07:55;6.60;;;3.37;;
19705;SDS011;10003;52.506;4.700;2023-05-14T11:10:25;3.40;;;2.57;;
19705;SDS011;10003;52.506;4.700;2023-05-14T11:12:56;1.80;;;1.40;;
19705;SDS011;10003;52.506;4.700;2023-05-14T11:15:25;3.20;;;1.63;;
19705;SDS011;10003;52.506;4.700;2023-05-14T11:17:54;4.30;;;2.17;;
19705;SDS011;10003;52.506;4.700;2023-05-14T11:20:23;3.80;;;2.90;;
19705;SDS011;10003;52.506;4.700;2023-05-14T11:22:52;3.30;;;2.23;;
19705;SDS011;10003;52.506;4.700;2023-05-14T11:25:20;2.93;;;1.93;;
19705;SDS011;10003;52.506;4.700;2023-05-14T11:27:51;6.57;;;4.20;;
19705;SDS011;10003;52.506;4.700;2023-05-14T11:30:25;2.40;;;2.30;;
19705;SDS011;10003;52.506;4.700;2023-05-14T11:32:54;3.00;;;1.80;;
19705;SDS011;10003;52.506;4.700;2023-05-14T11:35:27;2.43;;;2.10;;
19705;SDS011;10003;52.506;4.700;2023-05-14T11:37:55;3.43;;;1.83;;
19705;SDS011;10003;52.506;4.700;2023-05-14T11:40:24;2.30;;;1.93;;
19705;SDS011;10003;52.506;4.700;2023-05-14T11:42:52;3.70;;;2.77;;
19705;SDS011;10003;52.506;4.700;2023-05-14T11:45:25;1.83;;;1.73;;
19705;SDS011;10003;52.506;4.700;2023-05-14T11:47:55;5.43;;;2.60;;
19705;SDS011;10003;52.506;4.700;2023-05-14T11:50:23;2.30;;;1.87;;
19705;SDS011;10003;52.506;4.700;2023-05-14T11:52:55;1.90;;;1.80;;
19705;SDS011;10003;52.506;4.700;2023-05-14T11:55:23;1.67;;;1.57;;
19705;SDS011;10003;52.506;4.700;2023-05-14T11:57:52;4.03;;;3.37;;
19705;SDS011;10003;52.506;4.700;2023-05-14T12:00:21;2.60;;;2.27;;
19705;SDS011;10003;52.506;4.700;2023-05-14T12:02:52;2.23;;;1.97;;
19705;SDS011;10003;52.506;4.700;2023-05-14T12:05:21;3.47;;;3.27;;
19705;SDS011;10003;52.506;4.700;2023-05-14T12:07:50;3.83;;;3.00;;
19705;SDS011;10003;52.506;4.700;2023-05-14T12:10:18;4.80;;;4.03;;
19705;SDS011;10003;52.506;4.700;2023-05-14T12:12:47;2.73;;;2.10;;
19705;SDS011;10003;52.506;4.700;2023-05-14T12:15:16;6.47;;;5.13;;
19705;SDS011;10003;52.506;4.700;2023-05-14T12:17:50;4.77;;;2.33;;
19705;SDS011;10003;52.506;4.700;2023-05-14T12:20:20;6.00;;;4.53;;
19705;SDS011;10003;52.506;4.700;2023-05-14T12:22:49;3.53;;;3.17;;
19705;SDS011;10003;52.506;4.700;2023-05-14T12:25:17;4.70;;;3.73;;
19705;SDS011;10003;52.506;4.700;2023-05-14T12:27:46;5.53;;;3.57;;
19705;SDS011;10003;52.506;4.700;2023-05-14T12:30:14;5.33;;;3.47;;
19705;SDS011;10003;52.506;4.700;2023-05-14T12:32:47;4.40;;;4.00;;
19705;SDS011;10003;52.506;4.700;2023-05-14T12:35:20;8.00;;;2.30;;
19705;SDS011;10003;52.506;4.700;2023-05-14T12:37:49;3.50;;;2.53;;
19705;SDS011;10003;52.506;4.700;2023-05-14T12:40:17;6.93;;;4.43;;
19705;SDS011;10003;52.506;4.700;2023-05-14T12:42:46;1.57;;;1.47;;
19705;SDS011;10003;52.506;4.700;2023-05-14T12:45:14;4.40;;;3.40;;
19705;SDS011;10003;52.506;4.700;2023-05-14T12:47:43;3.47;;;2.93;;
19705;SDS011;10003;52.506;4.700;2023-05-14T12:50:11;2.00;;;1.90;;
19705;SDS011;10003;52.506;4.700;2023-05-14T12:52:41;4.10;;;2.10;;
19705;SDS011;10003;52.506;4.700;2023-05-14T12:55:10;2.60;;;2.40;;
19705;SDS011;10003;52.506;4.700;2023-05-14T12:57:38;6.20;;;2.77;;
19705;SDS011;10003;52.506;4.700;2023-05-14T13:00:07;4.10;;;3.70;;
19705;SDS011;10003;52.506;4.700;2023-05-14T13:02:46;6.60;;;3.27;;
19705;SDS011;10003;52.506;4.700;2023-05-14T13:05:15;2.00;;;1.90;;
19705;SDS011;10003;52.506;4.700;2023-05-14T13:07:45;4.33;;;2.13;;
19705;SDS011;10003;52.506;4.700;2023-05-14T13:10:13;5.23;;;2.50;;
19705;SDS011;10003;52.506;4.700;2023-05-14T13:12:43;4.93;;;2.30;;
19705;SDS011;10003;52.506;4.700;2023-05-14T13:15:12;3.83;;;2.53;;
19705;SDS011;10003;52.506;4.700;2023-05-14T13:17:41;2.57;;;1.87;;
19705;SDS011;10003;52.506;4.700;2023-05-14T13:20:09;2.33;;;2.13;;
19705;SDS011;10003;52.506;4.700;2023-05-14T13:22:38;1.43;;;1.33;;
19705;SDS011;10003;52.506;4.700;2023-05-14T13:25:08;1.77;;;1.57;;
19705;SDS011;10003;52.506;4.700;2023-05-14T13:27:37;3.57;;;2.50;;
19705;SDS011;10003;52.506;4.700;2023-05-14T13:30:06;5.33;;;2.13;;
19705;SDS011;10003;52.506;4.700;2023-05-14T13:32:37;4.33;;;2.70;;
19705;SDS011;10003;52.506;4.700;2023-05-14T13:35:07;2.40;;;2.20;;
19705;SDS011;10003;52.506;4.700;2023-05-14T13:37:36;3.03;;;2.20;;
19705;SDS011;10003;52.506;4.700;2023-05-14T13:40:05;2.70;;;2.20;;
19705;SDS011;10003;52.506;4.700;2023-05-14T13:42:35;3.57;;;2.63;;
19705;SDS011;10003;52.506;4.700;2023-05-14T13:45:05;5.10;;;2.83;;
19705;SDS011;10003;52.506;4.700;2023-05-14T13:47:33;2.43;;;1.87;;
19705;SDS011;10003;52.506;4.700;2023-05-14T13:50:02;2.80;;;2.60;;
19705;SDS011;10003;52.506;4.700;2023-05-14T13:52:31;10.37;;;3.63;;
19705;SDS011;10003;52.506;4.700;2023-05-14T13:54:59;4.07;;;2.20;;
19705;SDS011;10003;52.506;4.700;2023-05-14T13:57:27;5.03;;;3.57;;
19705;SDS011;10003;52.506;4.700;2023-05-14T13:59:57;2.00;;;1.80;;
19705;SDS011;10003;52.506;4.700;2023-05-14T14:02:25;3.97;;;2.70;;
19705;SDS011;10003;52.506;4.700;2023-05-14T14:04:54;1.83;;;1.73;;
19705;SDS011;10003;52.506;4.700;2023-05-14T14:07:22;10.97;;;3.30;;
19705;SDS011;10003;52.506;4.700;2023-05-14T14:09:51;4.73;;;3.07;;
19705;SDS011;10003;52.506;4.700;2023-05-14T14:12:19;3.83;;;2.87;;
19705;SDS011;10003;52.506;4.700;2023-05-14T14:14:48;2.70;;;2.30;;
19705;SDS011;10003;52.506;4.700;2023-05-14T14:17:18;3.33;;;3.03;;
19705;SDS011;10003;52.506;4.700;2023-05-14T14:19:46;3.17;;;2.83;;
19705;SDS011;10003;52.506;4.700;2023-05-14T14:22:15;7.10;;;3.23;;
19705;SDS011;10003;52.506;4.700;2023-05-14T14:24:43;5.00;;;2.40;;
19705;SDS011;10003;52.506;4.700;2023-05-14T14:27:12;2.90;;;2.27;;
19705;SDS011;10003;52.506;4.700;2023-05-14T14:29:40;9.00;;;3.37;;
19705;SDS011;10003;52.506;4.700;2023-05-14T14:32:09;3.23;;;2.93;;
19705;SDS011;10003;52.506;4.700;2023-05-14T14:34:39;7.13;;;3.63;;
19705;SDS011;10003;52.506;4.700;2023-05-14T14:37:07;4.90;;;2.53;;
19705;SDS011;10003;52.506;4.700;2023-05-14T14:39:35;7.60;;;1.93;;
19705;SDS011;10003;52.506;4.700;2023-05-14T14:42:04;3.43;;;2.63;;
19705;SDS011;10003;52.506;4.700;2023-05-14T14:44:33;10.03;;;3.53;;
19705;SDS011;10003;52.506;4.700;2023-05-14T14:47:02;4.90;;;2.63;;
19705;SDS011;10003;52.506;4.700;2023-05-14T14:49:31;5.50;;;3.07;;
19705;SDS011;10003;52.506;4.700;2023-05-14T14:52:03;3.63;;;3.33;;
19705;SDS011;10003;52.506;4.700;2023-05-14T14:54:32;3.60;;;2.43;;
19705;SDS011;10003;52.506;4.700;2023-05-14T14:57:00;4.07;;;2.43;;